createdAt,value
2023-01-26T00:01:21.120Z,8.02
2023-01-26T00:04:11.155Z,8.27
2023-01-26T00:06:58.947Z,7.30
2023-01-26T00:09:46.729Z,7.32
2023-01-26T00:12:34.387Z,8.27
2023-01-26T00:15:24.616Z,7.70
2023-01-26T00:18:12.246Z,7.32
2023-01-26T00:21:02.606Z,8.13
2023-01-26T00:23:51.998Z,7.93
2023-01-26T00:26:39.809Z,9.40
2023-01-26T00:29:27.506Z,8.80
2023-01-26T00:32:15.274Z,8.30
2023-01-26T00:35:03.774Z,7.68
2023-01-26T00:37:51.451Z,7.47
2023-01-26T00:40:40.895Z,7.60
2023-01-26T00:43:29.652Z,8.80
2023-01-26T00:46:17.365Z,8.20
2023-01-26T00:49:07.893Z,8.23
2023-01-26T00:51:58.413Z,8.18
2023-01-26T00:54:46.459Z,7.78
2023-01-26T00:57:35.496Z,7.78
2023-01-26T01:00:24.640Z,9.05
2023-01-26T01:03:12.287Z,8.48
2023-01-26T01:05:59.971Z,9.48
2023-01-26T01:08:52.622Z,8.23
2023-01-26T01:14:45.593Z,8.43
2023-01-26T01:17:36.746Z,6.80
2023-01-26T01:20:24.368Z,7.75
2023-01-26T01:23:14.400Z,7.53
2023-01-26T01:26:02.865Z,8.18
2023-01-26T01:28:55.533Z,8.13
2023-01-26T01:31:43.555Z,8.50
2023-01-26T01:34:31.359Z,6.65
2023-01-26T01:37:19.075Z,7.50
2023-01-26T01:40:07.504Z,7.47
2023-01-26T01:42:55.117Z,7.53
2023-01-26T01:45:47.706Z,7.65
2023-01-26T01:48:49.420Z,7.97
2023-01-26T01:51:48.297Z,7.40
2023-01-26T01:54:49.005Z,8.00
2023-01-26T01:57:55.399Z,7.50
2023-01-26T02:00:44.029Z,7.15
2023-01-26T02:03:33.620Z,7.40
2023-01-26T02:06:42.550Z,9.05
2023-01-26T02:09:53.541Z,7.22
2023-01-26T02:12:42.925Z,6.57
2023-01-26T02:15:33.091Z,8.82
2023-01-26T02:18:21.410Z,7.78
2023-01-26T02:21:16.756Z,6.25
2023-01-26T02:24:12.780Z,8.27
2023-01-26T02:27:03.150Z,8.52
2023-01-26T02:29:51.929Z,7.60
2023-01-26T02:32:39.718Z,8.27
2023-01-26T02:35:28.010Z,9.07
2023-01-26T02:38:16.971Z,7.93
2023-01-26T02:41:11.456Z,7.30
2023-01-26T02:43:59.403Z,9.60
2023-01-26T02:46:47.018Z,9.00
2023-01-26T02:49:48.248Z,8.20
2023-01-26T02:52:38.871Z,10.27
2023-01-26T02:55:32.272Z,9.27
2023-01-26T02:58:19.820Z,8.77
2023-01-26T03:01:07.653Z,7.60
2023-01-26T03:04:07.476Z,7.45
2023-01-26T03:06:55.809Z,9.00
2023-01-26T03:09:43.420Z,9.65
2023-01-26T03:12:31.234Z,10.65
2023-01-26T03:15:37.345Z,9.65
2023-01-26T03:18:43.639Z,8.45
2023-01-26T03:21:53.098Z,10.23
2023-01-26T03:24:59.693Z,9.65
2023-01-26T03:27:49.199Z,9.75
2023-01-26T03:30:42.443Z,9.63
2023-01-26T03:33:30.142Z,8.77
2023-01-26T03:36:18.121Z,8.55
2023-01-26T03:39:05.790Z,9.30
2023-01-26T03:42:12.519Z,9.00
2023-01-26T03:45:19.430Z,9.57
2023-01-26T03:48:30.277Z,9.48
2023-01-26T03:51:36.392Z,9.85
2023-01-26T03:54:42.929Z,10.87
2023-01-26T03:57:30.553Z,9.87
2023-01-26T04:00:22.399Z,9.68
2023-01-26T04:03:30.465Z,9.57
2023-01-26T04:06:36.780Z,9.88
2023-01-26T04:09:24.566Z,11.52
2023-01-26T04:12:12.435Z,10.32
2023-01-26T04:15:32.044Z,10.23
2023-01-26T04:18:40.234Z,10.77
2023-01-26T04:21:33.606Z,9.63
2023-01-26T04:24:24.905Z,10.13
2023-01-26T04:27:18.572Z,10.75
2023-01-26T04:30:09.694Z,10.02
2023-01-26T04:32:59.508Z,13.70
2023-01-26T04:35:47.300Z,11.55
2023-01-26T04:38:35.707Z,11.33
2023-01-26T04:41:28.148Z,10.27
2023-01-26T04:44:30.884Z,11.60
2023-01-26T04:47:25.862Z,9.75
2023-01-26T04:50:29.127Z,11.18
2023-01-26T04:53:23.534Z,10.50
2023-01-26T04:56:18.372Z,11.27
2023-01-26T04:59:08.514Z,10.65
2023-01-26T05:02:03.982Z,11.23
2023-01-26T05:05:04.677Z,11.55
2023-01-26T05:07:56.227Z,11.75
2023-01-26T05:10:51.611Z,10.32
2023-01-26T05:14:08.420Z,9.43
2023-01-26T05:17:04.540Z,11.50
2023-01-26T05:20:08.898Z,11.77
2023-01-26T05:23:00.819Z,10.18
2023-01-26T05:26:07.508Z,12.02
2023-01-26T05:29:13.048Z,13.10
2023-01-26T05:32:00.907Z,10.70
2023-01-26T05:34:48.923Z,9.82
2023-01-26T05:37:37.007Z,10.90
2023-01-26T05:40:26.397Z,10.95
2023-01-26T05:43:14.583Z,9.85
2023-01-26T05:46:12.395Z,9.32
2023-01-26T05:49:03.299Z,8.93
2023-01-26T05:51:51.194Z,10.48
2023-01-26T05:54:41.088Z,9.73
2023-01-26T05:57:28.769Z,9.02
2023-01-26T06:00:24.411Z,9.57
2023-01-26T06:03:20.488Z,9.88
2023-01-26T06:06:08.175Z,9.90
2023-01-26T06:09:09.060Z,10.90
2023-01-26T06:12:23.924Z,18.55
2023-01-26T06:15:17.290Z,14.00
2023-01-26T06:21:01.384Z,10.18
2023-01-26T06:26:37.261Z,9.90
2023-01-26T06:29:24.951Z,9.43
2023-01-26T06:32:14.169Z,10.32
2023-01-26T06:35:07.244Z,9.77
2023-01-26T06:37:55.353Z,16.13
2023-01-26T06:40:42.953Z,37.95
2023-01-26T06:43:35.756Z,17.50
2023-01-26T06:46:23.805Z,20.40
2023-01-26T06:49:16.876Z,12.57
2023-01-26T06:52:27.455Z,14.20
2023-01-26T06:55:36.511Z,21.85
2023-01-26T06:58:45.481Z,66.20
2023-01-26T07:01:56.077Z,38.45
2023-01-26T07:04:43.598Z,19.10
2023-01-26T07:07:33.546Z,16.10
2023-01-26T07:10:22.994Z,20.65
2023-01-26T07:13:10.757Z,15.38
2023-01-26T07:16:02.921Z,19.75
2023-01-26T07:21:41.756Z,12.80
2023-01-26T07:24:32.797Z,12.98
2023-01-26T07:27:20.413Z,12.70
2023-01-26T07:30:09.558Z,11.40
2023-01-26T07:33:00.536Z,19.90
2023-01-26T07:35:48.201Z,12.48
2023-01-26T07:38:35.740Z,12.73
2023-01-26T07:41:23.342Z,12.90
2023-01-26T07:44:14.068Z,11.23
2023-01-26T07:47:01.640Z,13.65
2023-01-26T07:49:51.168Z,12.77
2023-01-26T07:52:38.842Z,11.57
2023-01-26T07:55:26.645Z,12.98
2023-01-26T07:58:14.352Z,11.23
2023-01-26T08:01:10.629Z,14.52
2023-01-26T08:03:58.444Z,12.00
2023-01-26T08:06:46.007Z,13.18
2023-01-26T08:09:38.039Z,18.17
2023-01-26T08:12:26.516Z,15.27
2023-01-26T08:15:14.204Z,13.60
2023-01-26T08:18:03.969Z,11.43
2023-01-26T08:20:54.892Z,13.77
2023-01-26T08:23:42.527Z,11.95
2023-01-26T08:26:30.145Z,11.77
2023-01-26T08:29:20.995Z,11.32
2023-01-26T08:32:09.490Z,14.25
2023-01-26T08:34:57.029Z,11.27
2023-01-26T08:37:44.709Z,20.25
2023-01-26T08:40:34.662Z,18.73
2023-01-26T08:43:22.295Z,16.08
2023-01-26T08:46:10.363Z,13.13
2023-01-26T08:49:00.736Z,11.40
2023-01-26T08:51:48.295Z,14.05
2023-01-26T08:54:37.279Z,13.60
2023-01-26T08:57:24.932Z,11.82
2023-01-26T09:00:13.496Z,13.02
2023-01-26T09:03:03.079Z,11.18
2023-01-26T09:05:50.893Z,12.75
2023-01-26T09:08:38.479Z,13.10
2023-01-26T09:11:26.114Z,14.57
2023-01-26T09:14:13.671Z,14.02
2023-01-26T09:17:01.175Z,14.77
2023-01-26T09:19:48.749Z,17.13
2023-01-26T09:22:36.613Z,19.05
2023-01-26T09:25:24.103Z,14.27
2023-01-26T09:28:13.153Z,13.75
2023-01-26T09:31:10.000Z,13.70
2023-01-26T09:33:57.763Z,12.50
2023-01-26T09:36:45.341Z,13.38
2023-01-26T09:39:34.249Z,12.13
2023-01-26T09:42:36.678Z,16.23
2023-01-26T09:45:31.957Z,16.38
2023-01-26T09:48:25.373Z,15.25
2023-01-26T09:52:00.425Z,14.95
2023-01-26T09:54:51.621Z,15.43
2023-01-26T09:57:55.832Z,12.23
2023-01-26T10:00:53.302Z,12.10
2023-01-26T10:04:04.449Z,17.27
2023-01-26T10:06:59.869Z,33.33
2023-01-26T10:10:10.755Z,30.10
2023-01-26T10:12:59.874Z,17.92
2023-01-26T10:16:19.392Z,20.30
2023-01-26T10:19:16.891Z,20.60
2023-01-26T10:22:10.871Z,15.63
2023-01-26T10:25:00.497Z,16.48
2023-01-26T10:27:48.253Z,13.68
2023-01-26T10:30:35.913Z,13.60
2023-01-26T10:33:34.336Z,14.02
2023-01-26T10:36:22.454Z,13.82
2023-01-26T10:39:15.267Z,13.45
2023-01-26T10:42:06.444Z,14.80
2023-01-26T10:44:54.133Z,13.23
2023-01-26T10:47:41.900Z,12.18
2023-01-26T10:50:29.528Z,11.55
2023-01-26T10:53:29.943Z,13.75
2023-01-26T10:56:17.697Z,14.65
2023-01-26T10:59:08.994Z,12.00
2023-01-26T11:01:59.198Z,14.10
2023-01-26T11:05:06.977Z,36.85
2023-01-26T11:08:00.587Z,30.02
2023-01-26T11:10:54.381Z,19.25
2023-01-26T11:13:41.975Z,25.80
2023-01-26T11:16:29.611Z,22.58
2023-01-26T11:19:43.359Z,20.67
2023-01-26T11:22:51.148Z,24.30
2023-01-26T11:26:04.486Z,20.63
2023-01-26T11:28:51.991Z,17.27
2023-01-26T11:31:57.795Z,23.02
2023-01-26T11:34:48.182Z,21.52
2023-01-26T11:38:14.082Z,15.73
2023-01-26T11:41:39.746Z,18.90
2023-01-26T11:45:18.470Z,19.70
2023-01-26T11:48:50.493Z,21.77
2023-01-26T11:52:09.761Z,19.73
2023-01-26T11:55:19.034Z,14.88
2023-01-26T11:58:29.730Z,15.00
2023-01-26T12:01:30.349Z,15.50
2023-01-26T12:04:22.576Z,12.98
2023-01-26T12:07:29.707Z,12.48
2023-01-26T12:10:23.182Z,13.52
2023-01-26T12:13:39.368Z,11.52
2023-01-26T12:16:45.200Z,11.18
2023-01-26T12:19:41.233Z,10.98
2023-01-26T12:22:35.866Z,12.07
2023-01-26T12:25:26.194Z,12.65
2023-01-26T12:28:21.506Z,9.93
2023-01-26T12:31:22.383Z,10.43
2023-01-26T12:34:13.672Z,12.23
2023-01-26T12:37:01.117Z,12.05
2023-01-26T12:40:02.552Z,10.30
2023-01-26T12:43:04.005Z,12.23
2023-01-26T12:45:56.150Z,15.82
2023-01-26T12:48:53.094Z,15.70
2023-01-26T12:51:47.697Z,12.13
2023-01-26T12:54:47.060Z,13.35
2023-01-26T12:57:53.822Z,13.43
2023-01-26T13:00:51.204Z,9.55
2023-01-26T13:04:01.315Z,9.93
2023-01-26T13:07:24.507Z,12.93
2023-01-26T13:10:15.283Z,14.90
2023-01-26T13:13:29.085Z,13.88
2023-01-26T13:16:17.018Z,14.90
2023-01-26T13:19:04.701Z,13.80
2023-01-26T13:21:54.969Z,12.45
2023-01-26T13:24:42.899Z,20.85
2023-01-26T13:27:44.101Z,13.38
2023-01-26T13:30:31.754Z,10.90
2023-01-26T13:33:23.788Z,11.80
2023-01-26T13:36:17.535Z,23.83
2023-01-26T13:39:45.601Z,17.15
2023-01-26T13:43:20.747Z,13.20
2023-01-26T13:46:29.852Z,12.25
2023-01-26T13:49:37.023Z,11.75
2023-01-26T13:55:33.973Z,11.07
2023-01-26T13:58:23.380Z,19.02
2023-01-26T14:01:13.550Z,15.02
2023-01-26T14:04:06.314Z,10.82
2023-01-26T14:07:01.244Z,18.77
2023-01-26T14:09:52.729Z,18.40
2023-01-26T14:12:46.313Z,14.77
2023-01-26T14:15:35.251Z,14.40
2023-01-26T14:18:22.942Z,16.38
2023-01-26T14:21:22.516Z,16.27
2023-01-26T14:24:10.467Z,16.15
2023-01-26T14:27:02.246Z,17.42
2023-01-26T14:29:49.758Z,14.10
2023-01-26T14:32:37.492Z,13.45
2023-01-26T14:35:25.663Z,12.75
2023-01-26T14:38:16.885Z,12.32
2023-01-26T14:41:09.589Z,14.13
2023-01-26T14:44:02.028Z,13.60
2023-01-26T14:49:57.009Z,13.68
2023-01-26T14:52:46.774Z,13.02
2023-01-26T14:55:36.712Z,12.88
2023-01-26T14:58:33.353Z,14.32
2023-01-26T15:01:27.000Z,10.52
2023-01-26T15:04:26.180Z,10.52
2023-01-26T15:07:34.801Z,47.97
2023-01-26T15:10:36.952Z,24.85
2023-01-26T15:13:29.974Z,22.00
2023-01-26T15:16:23.308Z,15.95
2023-01-26T15:19:24.307Z,15.40
2023-01-26T15:22:25.984Z,14.15
2023-01-26T15:25:26.303Z,17.95
2023-01-26T15:28:19.628Z,11.88
2023-01-26T15:31:08.314Z,11.88
2023-01-26T15:33:56.388Z,14.80
2023-01-26T15:36:43.961Z,23.92
2023-01-26T15:39:31.507Z,17.65
2023-01-26T15:42:25.099Z,13.57
2023-01-26T15:45:23.513Z,17.65
2023-01-26T15:48:11.080Z,18.90
2023-01-26T15:50:58.611Z,18.13
2023-01-26T15:53:46.374Z,21.08
2023-01-26T15:56:34.036Z,13.90
2023-01-26T15:59:21.781Z,11.48
2023-01-26T16:02:15.453Z,12.10
2023-01-26T16:05:03.285Z,12.27
2023-01-26T16:07:54.334Z,23.75
2023-01-26T16:10:42.527Z,19.98
2023-01-26T16:13:34.136Z,22.90
2023-01-26T16:16:22.127Z,25.08
2023-01-26T16:19:10.989Z,15.70
2023-01-26T16:22:03.562Z,18.95
2023-01-26T16:24:51.583Z,22.48
2023-01-26T16:27:39.290Z,19.88
2023-01-26T16:30:27.217Z,13.52
2023-01-26T16:33:25.009Z,18.88
2023-01-26T16:36:14.627Z,20.70
2023-01-26T16:39:02.456Z,15.85
2023-01-26T16:41:51.480Z,18.38
2023-01-26T16:44:39.279Z,21.80
2023-01-26T16:47:29.747Z,42.70
2023-01-26T16:50:20.709Z,18.23
2023-01-26T16:53:33.287Z,18.85
2023-01-26T16:56:22.694Z,21.65
2023-01-26T16:59:13.591Z,20.15
2023-01-26T17:02:05.239Z,17.83
2023-01-26T17:05:04.775Z,20.13
2023-01-26T17:07:52.439Z,18.85
2023-01-26T17:10:59.892Z,33.58
2023-01-26T17:13:49.906Z,25.02
2023-01-26T17:16:37.790Z,14.02
2023-01-26T17:19:25.603Z,14.95
2023-01-26T17:22:13.454Z,16.83
2023-01-26T17:25:01.272Z,15.18
2023-01-26T17:27:50.065Z,13.85
2023-01-26T17:30:49.649Z,11.25
2023-01-26T17:33:37.896Z,12.65
2023-01-26T17:36:31.565Z,37.78
2023-01-26T17:39:19.248Z,19.00
2023-01-26T17:42:07.098Z,16.63
2023-01-26T17:44:55.814Z,17.33
2023-01-26T17:47:43.949Z,23.23
2023-01-26T17:50:34.609Z,18.10
2023-01-26T17:53:31.834Z,20.08
2023-01-26T17:56:21.306Z,15.77
2023-01-26T17:59:22.318Z,13.43
2023-01-26T18:02:26.992Z,13.48
2023-01-26T18:05:14.744Z,13.73
2023-01-26T18:08:05.899Z,11.07
2023-01-26T18:11:10.808Z,11.07
2023-01-26T18:14:00.922Z,9.30
2023-01-26T18:16:51.558Z,9.05
2023-01-26T18:19:53.909Z,12.93
2023-01-26T18:22:41.714Z,11.60
2023-01-26T18:25:29.630Z,11.13
2023-01-26T18:28:17.635Z,11.52
2023-01-26T18:31:40.917Z,13.00
2023-01-26T18:34:28.646Z,10.60
2023-01-26T18:37:21.501Z,10.68
2023-01-26T18:40:10.230Z,10.23
2023-01-26T18:43:01.070Z,10.63
2023-01-26T18:45:48.711Z,11.30
2023-01-26T18:48:36.724Z,8.32
2023-01-26T18:51:24.457Z,12.60
2023-01-26T18:54:13.216Z,9.82
2023-01-26T18:57:00.969Z,9.35
2023-01-26T18:59:51.561Z,11.20
2023-01-26T19:02:39.324Z,9.77
2023-01-26T19:05:27.110Z,13.20
2023-01-26T19:08:15.984Z,12.95
2023-01-26T19:11:09.584Z,10.18
2023-01-26T19:14:01.607Z,9.00
2023-01-26T19:16:49.448Z,10.57
2023-01-26T19:19:38.529Z,11.43
2023-01-26T19:22:27.193Z,10.20
2023-01-26T19:25:14.999Z,10.70
2023-01-26T19:28:04.150Z,10.13
2023-01-26T19:30:52.190Z,10.73
2023-01-26T19:34:00.110Z,7.95
2023-01-26T19:36:47.991Z,8.20
2023-01-26T19:39:36.668Z,9.93
2023-01-26T19:42:24.314Z,9.38
2023-01-26T19:45:14.780Z,8.95
2023-01-26T19:48:02.501Z,8.23
2023-01-26T19:51:06.457Z,12.13
2023-01-26T19:53:56.374Z,9.25
2023-01-26T19:56:44.079Z,9.40
2023-01-26T19:59:31.736Z,7.82
2023-01-26T20:02:23.687Z,8.35
2023-01-26T20:05:14.486Z,8.68
2023-01-26T20:08:03.356Z,8.50
2023-01-26T20:10:52.948Z,7.13
2023-01-26T20:13:43.891Z,7.13
2023-01-26T20:16:34.546Z,7.32
2023-01-26T20:19:22.362Z,7.88
2023-01-26T20:22:10.645Z,8.48
2023-01-26T20:24:58.431Z,7.72
2023-01-26T20:27:46.458Z,6.53
2023-01-26T20:30:34.550Z,8.02
2023-01-26T20:33:25.211Z,5.97
2023-01-26T20:36:16.712Z,4.57
2023-01-26T20:39:05.283Z,5.10
2023-01-26T20:41:54.204Z,4.93
2023-01-26T20:44:43.381Z,4.85
2023-01-26T20:47:33.967Z,5.18
2023-01-26T20:50:24.055Z,4.93
2023-01-26T20:53:11.887Z,5.55
2023-01-26T20:56:00.067Z,4.72
2023-01-26T20:58:50.605Z,4.35
2023-01-26T21:01:38.488Z,4.57
2023-01-26T21:04:31.070Z,3.97
2023-01-26T21:07:21.893Z,3.47
2023-01-26T21:10:10.264Z,4.28
2023-01-26T21:12:58.191Z,3.13
2023-01-26T21:15:51.192Z,4.43
2023-01-26T21:19:09.593Z,4.75
2023-01-26T21:21:48.130Z,5.07
2023-01-26T21:24:36.122Z,5.85
2023-01-26T21:27:23.868Z,4.18
2023-01-26T21:30:17.841Z,4.15
2023-01-26T21:33:12.094Z,3.15
2023-01-26T21:36:01.653Z,5.43
2023-01-26T21:38:51.955Z,5.13
2023-01-26T21:41:57.856Z,3.70
2023-01-26T21:45:03.623Z,5.10
2023-01-26T21:48:14.412Z,4.63
2023-01-26T21:51:23.574Z,4.80
2023-01-26T21:54:18.045Z,5.53
2023-01-26T22:00:15.383Z,3.80
2023-01-26T22:03:03.516Z,6.18
2023-01-26T22:05:57.918Z,4.70
2023-01-26T22:08:45.599Z,5.15
2023-01-26T22:11:33.573Z,5.25
2023-01-26T22:14:23.661Z,4.55
2023-01-26T22:17:11.319Z,4.53
2023-01-26T22:19:59.777Z,3.83
2023-01-26T22:22:47.638Z,3.97
2023-01-26T22:25:41.505Z,3.67
2023-01-26T22:28:30.863Z,4.05
2023-01-26T22:31:20.031Z,4.00
2023-01-26T22:34:11.962Z,3.70
2023-01-26T22:36:59.744Z,3.47
2023-01-26T22:39:49.309Z,3.83
2023-01-26T22:42:37.175Z,4.03
2023-01-26T22:45:27.588Z,4.15
2023-01-26T22:48:18.920Z,4.25
2023-01-26T22:51:27.980Z,3.83
2023-01-26T22:54:17.334Z,3.33
2023-01-26T22:57:04.963Z,3.85
2023-01-26T22:59:55.667Z,3.17
2023-01-26T23:02:43.261Z,3.75
2023-01-26T23:05:34.113Z,4.32
2023-01-26T23:08:23.196Z,3.92
2023-01-26T23:11:28.138Z,3.00
2023-01-26T23:14:15.798Z,4.88
2023-01-26T23:17:04.952Z,3.25
2023-01-26T23:19:55.336Z,4.40
2023-01-26T23:22:43.102Z,4.93
2023-01-26T23:25:49.127Z,4.65
2023-01-26T23:28:40.182Z,5.38
2023-01-26T23:31:29.117Z,4.75
2023-01-26T23:34:16.795Z,5.10
2023-01-26T23:37:04.415Z,5.15
2023-01-26T23:39:52.180Z,5.18
2023-01-26T23:43:00.342Z,3.97
2023-01-26T23:45:51.610Z,4.82
2023-01-26T23:48:39.463Z,5.75
2023-01-26T23:51:27.275Z,4.97
2023-01-26T23:54:15.103Z,3.70
2023-01-26T23:57:02.828Z,4.25
2023-01-26T23:59:50.500Z,3.65
